Amatorska stacja pogodowa orzepowice24.pl
Bogaty zestaw statystyk w zakładce „DOKŁADNE STATYSTYKI”

Visit our other weather sites:

Template documentation
and downloads

SZCZEGÓŁOWE STATYSTYKI

weather34-X5


You find our weather info also at:

UK Metoffice

WeatherCloud

Weather Underground

AWEKAS

WeatherlinkIP

Citizen Weather Observer Program (CWOP)

HAMweather, WeatherForYou, PWS Weather


No particular awareness of the weather is required.    There are no Weather-warnings

Raporty METAR w pobliżu


Warning: A non-numeric value encountered in /var/www/orzepowice24.pl/weather28/metar/metarDisplay.php on line 166

Warning: A non-numeric value encountered in /var/www/orzepowice24.pl/weather28/metar/metarDisplay.php on line 166

Warning: A non-numeric value encountered in /var/www/orzepowice24.pl/weather28/metar/metarDisplay.php on line 166

Warning: A non-numeric value encountered in /var/www/orzepowice24.pl/weather28/metar/metarDisplay.php on line 166
   
EPKT - Katowice
Zaktualizowano: 16-08-2018 23:30
Bezchmurne niebo  
Bezchmurne niebo  
   Wiatr: Wschód 11.1 km/h
Wiatr: Wschód 11.1 km/h
Temperatura: 16°C
Punkt rosy: 13°C
Wilgotność: 83%
Ciśnienie: 1018 hPa
Widoczność: Więcej niż 10 km
Szczegóły dotyczące chmur: Bezchmurne niebo
EPKT 162130Z 08006KT CAVOK 16/13 Q1018
EPKK - Kraków
Zaktualizowano: 16-08-2018 23:30
Bezchmurne niebo  
Bezchmurne niebo  
   Wiatr: NE 5.6 km/h
Wiatr: NE 5.6 km/h
Temperatura: 17°C
Punkt rosy: 15°C
Wilgotność: 88%
Ciśnienie: 1018 hPa
Widoczność: Więcej niż 10 km
Szczegóły dotyczące chmur: Bezchmurne niebo
EPKK 162130Z 05003KT CAVOK 17/15 Q1018
LKMT - Ostrava
Zaktualizowano: 16-08-2018 23:30
Bezchmurne niebo  
Bezchmurne niebo  
   Wiatr: NNE 5.6 km/h
Wiatr: NNE 5.6 km/h
Temperatura: 18°C
Punkt rosy: 14°C
Wilgotność: 78%
Ciśnienie: 1018 hPa
Widoczność: Więcej niż 10 km
Szczegóły dotyczące chmur: Bezchmurne niebo
LKMT 162130Z 02003KT CAVOK 18/14 Q1018 NOSIG
LZZI - Žilina
Zaktualizowano: 16-08-2018 23:30
Bezchmurne niebo  
Bezchmurne niebo  
   Wiatr: varies 3.7 km/h
Wiatr: varies 3.7 km/h
Temperatura: 18°C
Punkt rosy: 14°C
Wilgotność: 78%
Ciśnienie: 1018 hPa
Widoczność: Więcej niż 10 km
Szczegóły dotyczące chmur: Bezchmurne niebo
LZZI 162130Z VRB02KT CAVOK 18/14 Q1018
  

Skrypt opracowany przez  Saratoga-weather.org Dostosowany do szablonu przez  Weerstation Leuven